sensor_id;sensor_type;location;lat;lon;timestamp;temperature;humidity
32394;DHT22;18853;45.426;9.206;2022-07-22T00:00:32;35.50;29.60
32394;DHT22;18853;45.426;9.206;2022-07-22T00:02:57;35.60;29.40
32394;DHT22;18853;45.426;9.206;2022-07-22T00:05:23;35.70;29.10
32394;DHT22;18853;45.426;9.206;2022-07-22T00:07:49;35.70;29.20
32394;DHT22;18853;45.426;9.206;2022-07-22T00:10:14;35.60;29.20
32394;DHT22;18853;45.426;9.206;2022-07-22T00:12:40;35.60;29.20
32394;DHT22;18853;45.426;9.206;2022-07-22T00:15:07;35.70;29.10
32394;DHT22;18853;45.426;9.206;2022-07-22T00:17:33;35.80;28.90
32394;DHT22;18853;45.426;9.206;2022-07-22T00:19:58;35.80;28.80
32394;DHT22;18853;45.426;9.206;2022-07-22T00:22:24;35.80;28.90
32394;DHT22;18853;45.426;9.206;2022-07-22T00:24:50;35.70;28.80
32394;DHT22;18853;45.426;9.206;2022-07-22T00:27:15;35.70;29.20
32394;DHT22;18853;45.426;9.206;2022-07-22T00:29:41;35.60;29.50
32394;DHT22;18853;45.426;9.206;2022-07-22T00:32:07;35.50;29.60
32394;DHT22;18853;45.426;9.206;2022-07-22T00:34:32;35.40;29.60
32394;DHT22;18853;45.426;9.206;2022-07-22T00:36:58;35.30;29.70
32394;DHT22;18853;45.426;9.206;2022-07-22T00:39:24;35.30;30.00
32394;DHT22;18853;45.426;9.206;2022-07-22T00:41:49;35.30;30.30
32394;DHT22;18853;45.426;9.206;2022-07-22T00:44:15;35.20;30.30
32394;DHT22;18853;45.426;9.206;2022-07-22T00:46:41;35.20;30.30
32394;DHT22;18853;45.426;9.206;2022-07-22T00:49:08;35.10;30.40
32394;DHT22;18853;45.426;9.206;2022-07-22T00:51:34;35.00;30.80
32394;DHT22;18853;45.426;9.206;2022-07-22T00:54:01;34.90;31.00
32394;DHT22;18853;45.426;9.206;2022-07-22T00:56:28;34.80;31.30
32394;DHT22;18853;45.426;9.206;2022-07-22T00:58:55;34.70;31.40
32394;DHT22;18853;45.426;9.206;2022-07-22T01:01:22;34.70;31.80
32394;DHT22;18853;45.426;9.206;2022-07-22T01:03:47;34.70;31.80
32394;DHT22;18853;45.426;9.206;2022-07-22T01:06:13;34.60;32.00
32394;DHT22;18853;45.426;9.206;2022-07-22T01:08:39;34.60;32.30
32394;DHT22;18853;45.426;9.206;2022-07-22T01:11:14;34.60;32.70
32394;DHT22;18853;45.426;9.206;2022-07-22T01:13:40;34.60;33.10
32394;DHT22;18853;45.426;9.206;2022-07-22T01:16:07;34.40;33.20
32394;DHT22;18853;45.426;9.206;2022-07-22T01:18:33;34.40;33.40
32394;DHT22;18853;45.426;9.206;2022-07-22T01:20:59;34.40;33.30
32394;DHT22;18853;45.426;9.206;2022-07-22T01:23:25;34.30;33.40
32394;DHT22;18853;45.426;9.206;2022-07-22T01:25:51;34.30;33.60
32394;DHT22;18853;45.426;9.206;2022-07-22T01:28:17;34.30;34.40
32394;DHT22;18853;45.426;9.206;2022-07-22T01:30:43;34.30;33.80
32394;DHT22;18853;45.426;9.206;2022-07-22T01:33:08;34.30;33.70
32394;DHT22;18853;45.426;9.206;2022-07-22T01:35:34;34.20;33.60
32394;DHT22;18853;45.426;9.206;2022-07-22T01:37:59;34.20;33.70
32394;DHT22;18853;45.426;9.206;2022-07-22T01:40:25;34.20;33.80
32394;DHT22;18853;45.426;9.206;2022-07-22T01:42:51;34.20;33.80
32394;DHT22;18853;45.426;9.206;2022-07-22T01:45:16;34.10;33.70
32394;DHT22;18853;45.426;9.206;2022-07-22T01:47:42;34.10;33.80
32394;DHT22;18853;45.426;9.206;2022-07-22T01:50:09;34.10;33.80
32394;DHT22;18853;45.426;9.206;2022-07-22T01:52:35;34.00;33.70
32394;DHT22;18853;45.426;9.206;2022-07-22T01:55:02;34.00;33.70
32394;DHT22;18853;45.426;9.206;2022-07-22T01:57:28;34.00;33.70
32394;DHT22;18853;45.426;9.206;2022-07-22T01:59:53;34.00;33.80
32394;DHT22;18853;45.426;9.206;2022-07-22T02:02:19;34.00;33.90
32394;DHT22;18853;45.426;9.206;2022-07-22T02:04:44;34.00;34.00
32394;DHT22;18853;45.426;9.206;2022-07-22T02:07:10;34.00;33.90
32394;DHT22;18853;45.426;9.206;2022-07-22T02:09:36;33.90;34.00
32394;DHT22;18853;45.426;9.206;2022-07-22T02:12:01;33.90;34.20
32394;DHT22;18853;45.426;9.206;2022-07-22T02:14:27;33.90;34.40
32394;DHT22;18853;45.426;9.206;2022-07-22T02:16:53;33.80;34.40
32394;DHT22;18853;45.426;9.206;2022-07-22T02:19:18;33.70;34.30
32394;DHT22;18853;45.426;9.206;2022-07-22T02:21:44;33.70;34.30
32394;DHT22;18853;45.426;9.206;2022-07-22T02:24:09;33.70;34.40
32394;DHT22;18853;45.426;9.206;2022-07-22T02:26:35;33.80;34.30
32394;DHT22;18853;45.426;9.206;2022-07-22T02:29:01;33.80;34.30
32394;DHT22;18853;45.426;9.206;2022-07-22T02:31:27;33.80;34.90
32394;DHT22;18853;45.426;9.206;2022-07-22T02:33:52;33.70;34.20
32394;DHT22;18853;45.426;9.206;2022-07-22T02:36:18;33.80;34.30
32394;DHT22;18853;45.426;9.206;2022-07-22T02:38:44;33.80;34.40
32394;DHT22;18853;45.426;9.206;2022-07-22T02:41:10;33.70;34.40
32394;DHT22;18853;45.426;9.206;2022-07-22T02:43:35;33.70;34.40
32394;DHT22;18853;45.426;9.206;2022-07-22T02:46:01;33.70;34.50
32394;DHT22;18853;45.426;9.206;2022-07-22T02:48:27;33.70;34.60
32394;DHT22;18853;45.426;9.206;2022-07-22T02:50:52;33.70;34.70
32394;DHT22;18853;45.426;9.206;2022-07-22T02:53:18;33.70;34.70
32394;DHT22;18853;45.426;9.206;2022-07-22T02:55:44;33.70;34.70
32394;DHT22;18853;45.426;9.206;2022-07-22T02:58:10;33.60;34.60
32394;DHT22;18853;45.426;9.206;2022-07-22T03:00:36;33.60;34.60
32394;DHT22;18853;45.426;9.206;2022-07-22T03:03:05;33.60;34.70
32394;DHT22;18853;45.426;9.206;2022-07-22T03:05:31;33.50;34.70
32394;DHT22;18853;45.426;9.206;2022-07-22T03:07:57;33.50;34.80
32394;DHT22;18853;45.426;9.206;2022-07-22T03:10:22;33.50;35.40
32394;DHT22;18853;45.426;9.206;2022-07-22T03:12:48;33.50;34.70
32394;DHT22;18853;45.426;9.206;2022-07-22T03:15:14;33.50;34.80
32394;DHT22;18853;45.426;9.206;2022-07-22T03:17:40;33.50;34.90
32394;DHT22;18853;45.426;9.206;2022-07-22T03:20:07;33.50;35.00
32394;DHT22;18853;45.426;9.206;2022-07-22T03:22:34;33.50;35.00
32394;DHT22;18853;45.426;9.206;2022-07-22T03:25:00;33.50;35.00
32394;DHT22;18853;45.426;9.206;2022-07-22T03:27:26;33.40;35.00
32394;DHT22;18853;45.426;9.206;2022-07-22T03:29:52;33.40;35.10
32394;DHT22;18853;45.426;9.206;2022-07-22T03:32:17;33.40;35.10
32394;DHT22;18853;45.426;9.206;2022-07-22T03:34:44;33.40;35.10
32394;DHT22;18853;45.426;9.206;2022-07-22T03:37:10;33.30;35.10
32394;DHT22;18853;45.426;9.206;2022-07-22T03:39:35;33.20;35.20
32394;DHT22;18853;45.426;9.206;2022-07-22T03:42:01;33.40;35.00
32394;DHT22;18853;45.426;9.206;2022-07-22T03:44:27;33.50;34.80
32394;DHT22;18853;45.426;9.206;2022-07-22T03:46:53;33.50;34.70
32394;DHT22;18853;45.426;9.206;2022-07-22T03:49:18;33.60;34.60
32394;DHT22;18853;45.426;9.206;2022-07-22T03:51:44;33.60;34.60
32394;DHT22;18853;45.426;9.206;2022-07-22T03:54:10;33.70;34.60
32394;DHT22;18853;45.426;9.206;2022-07-22T03:56:35;33.70;34.50
32394;DHT22;18853;45.426;9.206;2022-07-22T03:59:01;33.70;35.10
32394;DHT22;18853;45.426;9.206;2022-07-22T04:01:27;33.70;34.40
32394;DHT22;18853;45.426;9.206;2022-07-22T04:03:52;33.70;34.60
32394;DHT22;18853;45.426;9.206;2022-07-22T04:06:18;33.70;34.40
32394;DHT22;18853;45.426;9.206;2022-07-22T04:08:44;33.70;34.40
32394;DHT22;18853;45.426;9.206;2022-07-22T04:11:09;33.70;34.40
32394;DHT22;18853;45.426;9.206;2022-07-22T04:13:35;33.70;34.40
32394;DHT22;18853;45.426;9.206;2022-07-22T04:16:01;33.70;34.40
32394;DHT22;18853;45.426;9.206;2022-07-22T04:18:27;33.70;34.40
32394;DHT22;18853;45.426;9.206;2022-07-22T04:20:54;33.70;34.40
32394;DHT22;18853;45.426;9.206;2022-07-22T04:23:20;33.80;34.40
32394;DHT22;18853;45.426;9.206;2022-07-22T04:25:46;33.70;34.30
32394;DHT22;18853;45.426;9.206;2022-07-22T04:28:11;33.80;34.40
32394;DHT22;18853;45.426;9.206;2022-07-22T04:30:37;33.70;34.20
32394;DHT22;18853;45.426;9.206;2022-07-22T04:33:03;33.70;34.20
32394;DHT22;18853;45.426;9.206;2022-07-22T04:35:28;33.70;34.30
32394;DHT22;18853;45.426;9.206;2022-07-22T04:37:54;33.70;34.30
32394;DHT22;18853;45.426;9.206;2022-07-22T04:40:20;33.70;34.30
32394;DHT22;18853;45.426;9.206;2022-07-22T04:42:45;33.70;34.30
32394;DHT22;18853;45.426;9.206;2022-07-22T04:45:11;33.70;34.40
32394;DHT22;18853;45.426;9.206;2022-07-22T04:47:37;33.70;34.40
32394;DHT22;18853;45.426;9.206;2022-07-22T04:50:03;33.70;34.40
32394;DHT22;18853;45.426;9.206;2022-07-22T04:52:28;33.70;34.40
32394;DHT22;18853;45.426;9.206;2022-07-22T04:54:54;33.70;34.40
32394;DHT22;18853;45.426;9.206;2022-07-22T04:57:19;33.70;34.40
32394;DHT22;18853;45.426;9.206;2022-07-22T04:59:45;33.70;34.40
32394;DHT22;18853;45.426;9.206;2022-07-22T05:02:11;33.70;34.40
32394;DHT22;18853;45.426;9.206;2022-07-22T05:04:36;33.70;34.30
32394;DHT22;18853;45.426;9.206;2022-07-22T05:07:02;33.70;34.40
32394;DHT22;18853;45.426;9.206;2022-07-22T05:09:28;33.70;34.50
32394;DHT22;18853;45.426;9.206;2022-07-22T05:11:54;33.70;34.50
32394;DHT22;18853;45.426;9.206;2022-07-22T05:14:20;33.70;34.60
32394;DHT22;18853;45.426;9.206;2022-07-22T05:16:46;33.70;34.60
32394;DHT22;18853;45.426;9.206;2022-07-22T05:19:11;33.70;34.50
32394;DHT22;18853;45.426;9.206;2022-07-22T05:21:37;33.80;34.40
32394;DHT22;18853;45.426;9.206;2022-07-22T05:24:04;33.80;34.30
32394;DHT22;18853;45.426;9.206;2022-07-22T05:26:30;33.80;34.20
32394;DHT22;18853;45.426;9.206;2022-07-22T05:28:57;33.80;34.30
32394;DHT22;18853;45.426;9.206;2022-07-22T05:31:23;33.80;34.40
32394;DHT22;18853;45.426;9.206;2022-07-22T05:33:49;33.80;34.50
32394;DHT22;18853;45.426;9.206;2022-07-22T05:36:14;33.80;34.10
32394;DHT22;18853;45.426;9.206;2022-07-22T05:38:40;33.80;34.10
32394;DHT22;18853;45.426;9.206;2022-07-22T05:41:06;33.80;34.00
32394;DHT22;18853;45.426;9.206;2022-07-22T05:43:31;33.80;33.80
32394;DHT22;18853;45.426;9.206;2022-07-22T05:45:57;33.80;33.70
32394;DHT22;18853;45.426;9.206;2022-07-22T05:48:23;33.90;33.60
32394;DHT22;18853;45.426;9.206;2022-07-22T05:50:48;33.90;33.70
32394;DHT22;18853;45.426;9.206;2022-07-22T05:55:42;33.90;33.60
32394;DHT22;18853;45.426;9.206;2022-07-22T05:58:08;33.90;33.90
32394;DHT22;18853;45.426;9.206;2022-07-22T06:00:34;33.90;33.50
32394;DHT22;18853;45.426;9.206;2022-07-22T06:03:00;34.00;33.30
32394;DHT22;18853;45.426;9.206;2022-07-22T06:05:26;33.90;33.30
32394;DHT22;18853;45.426;9.206;2022-07-22T06:07:51;34.00;33.60
32394;DHT22;18853;45.426;9.206;2022-07-22T06:10:17;34.00;33.80
32394;DHT22;18853;45.426;9.206;2022-07-22T06:12:42;33.90;33.60
32394;DHT22;18853;45.426;9.206;2022-07-22T06:15:08;34.00;34.20
32394;DHT22;18853;45.426;9.206;2022-07-22T06:17:34;34.00;33.40
32394;DHT22;18853;45.426;9.206;2022-07-22T06:20:00;34.00;33.30
32394;DHT22;18853;45.426;9.206;2022-07-22T06:22:26;34.00;33.40
32394;DHT22;18853;45.426;9.206;2022-07-22T06:24:51;34.00;33.50
32394;DHT22;18853;45.426;9.206;2022-07-22T06:27:17;34.00;33.30
32394;DHT22;18853;45.426;9.206;2022-07-22T06:29:43;34.10;33.50
32394;DHT22;18853;45.426;9.206;2022-07-22T06:32:08;34.00;34.00
32394;DHT22;18853;45.426;9.206;2022-07-22T06:34:34;34.10;34.20
32394;DHT22;18853;45.426;9.206;2022-07-22T06:36:59;34.10;34.00
32394;DHT22;18853;45.426;9.206;2022-07-22T06:39:25;34.10;32.90
32394;DHT22;18853;45.426;9.206;2022-07-22T06:41:51;34.10;32.20
32394;DHT22;18853;45.426;9.206;2022-07-22T06:44:16;34.10;32.50
32394;DHT22;18853;45.426;9.206;2022-07-22T06:46:42;34.10;33.10
32394;DHT22;18853;45.426;9.206;2022-07-22T06:49:08;34.10;32.80
32394;DHT22;18853;45.426;9.206;2022-07-22T06:51:34;34.10;32.80
32394;DHT22;18853;45.426;9.206;2022-07-22T06:54:00;34.10;31.90
32394;DHT22;18853;45.426;9.206;2022-07-22T06:56:26;34.10;32.20
32394;DHT22;18853;45.426;9.206;2022-07-22T06:58:52;34.10;31.90
32394;DHT22;18853;45.426;9.206;2022-07-22T07:01:18;34.10;32.00
32394;DHT22;18853;45.426;9.206;2022-07-22T07:03:44;34.10;32.10
32394;DHT22;18853;45.426;9.206;2022-07-22T07:06:11;34.10;32.10
32394;DHT22;18853;45.426;9.206;2022-07-22T07:08:38;34.10;32.40
32394;DHT22;18853;45.426;9.206;2022-07-22T07:11:04;34.10;32.50
32394;DHT22;18853;45.426;9.206;2022-07-22T07:13:29;34.10;32.50
32394;DHT22;18853;45.426;9.206;2022-07-22T07:15:55;34.10;32.60
32394;DHT22;18853;45.426;9.206;2022-07-22T07:18:21;34.20;33.50
32394;DHT22;18853;45.426;9.206;2022-07-22T07:20:47;34.20;32.30
32394;DHT22;18853;45.426;9.206;2022-07-22T07:23:12;34.10;32.00
32394;DHT22;18853;45.426;9.206;2022-07-22T07:25:38;34.10;31.60
32394;DHT22;18853;45.426;9.206;2022-07-22T07:28:04;34.10;31.30
32394;DHT22;18853;45.426;9.206;2022-07-22T07:30:31;34.10;31.50
32394;DHT22;18853;45.426;9.206;2022-07-22T07:32:56;34.10;31.80
32394;DHT22;18853;45.426;9.206;2022-07-22T07:35:22;34.10;31.40
32394;DHT22;18853;45.426;9.206;2022-07-22T07:37:48;34.10;30.90
32394;DHT22;18853;45.426;9.206;2022-07-22T07:40:14;34.10;31.30
32394;DHT22;18853;45.426;9.206;2022-07-22T07:42:39;34.20;31.10
32394;DHT22;18853;45.426;9.206;2022-07-22T07:45:05;34.20;31.50
32394;DHT22;18853;45.426;9.206;2022-07-22T07:47:31;34.20;32.20
32394;DHT22;18853;45.426;9.206;2022-07-22T07:49:57;34.20;32.20
32394;DHT22;18853;45.426;9.206;2022-07-22T07:52:25;34.20;32.10
32394;DHT22;18853;45.426;9.206;2022-07-22T07:54:51;34.30;31.90
32394;DHT22;18853;45.426;9.206;2022-07-22T07:57:18;34.30;32.30
32394;DHT22;18853;45.426;9.206;2022-07-22T07:59:43;34.30;31.70
32394;DHT22;18853;45.426;9.206;2022-07-22T08:02:10;34.40;31.90
32394;DHT22;18853;45.426;9.206;2022-07-22T08:04:36;34.40;32.30
32394;DHT22;18853;45.426;9.206;2022-07-22T08:07:03;34.40;32.50
32394;DHT22;18853;45.426;9.206;2022-07-22T08:09:28;34.40;32.30
32394;DHT22;18853;45.426;9.206;2022-07-22T08:11:54;34.40;32.60
32394;DHT22;18853;45.426;9.206;2022-07-22T08:14:20;34.50;31.40
32394;DHT22;18853;45.426;9.206;2022-07-22T08:16:46;34.50;31.50
32394;DHT22;18853;45.426;9.206;2022-07-22T08:19:12;34.50;32.00
32394;DHT22;18853;45.426;9.206;2022-07-22T08:21:37;34.50;31.70
32394;DHT22;18853;45.426;9.206;2022-07-22T08:24:03;34.50;31.40
32394;DHT22;18853;45.426;9.206;2022-07-22T08:26:29;34.60;31.70
32394;DHT22;18853;45.426;9.206;2022-07-22T08:28:54;34.50;30.50
32394;DHT22;18853;45.426;9.206;2022-07-22T08:31:20;34.50;30.60
32394;DHT22;18853;45.426;9.206;2022-07-22T08:33:45;34.60;30.60
32394;DHT22;18853;45.426;9.206;2022-07-22T08:36:11;34.60;30.70
32394;DHT22;18853;45.426;9.206;2022-07-22T08:38:37;34.60;31.10
32394;DHT22;18853;45.426;9.206;2022-07-22T08:41:03;34.70;30.00
32394;DHT22;18853;45.426;9.206;2022-07-22T08:43:30;34.70;30.30
32394;DHT22;18853;45.426;9.206;2022-07-22T08:45:57;34.60;30.00
32394;DHT22;18853;45.426;9.206;2022-07-22T08:48:22;34.60;30.00
32394;DHT22;18853;45.426;9.206;2022-07-22T08:50:48;34.60;30.40
32394;DHT22;18853;45.426;9.206;2022-07-22T08:53:14;34.70;30.90
32394;DHT22;18853;45.426;9.206;2022-07-22T08:55:43;34.70;31.30
32394;DHT22;18853;45.426;9.206;2022-07-22T08:58:09;34.70;31.40
32394;DHT22;18853;45.426;9.206;2022-07-22T09:00:35;34.80;30.60
32394;DHT22;18853;45.426;9.206;2022-07-22T09:03:19;34.80;30.00
32394;DHT22;18853;45.426;9.206;2022-07-22T09:05:48;34.90;30.80
32394;DHT22;18853;45.426;9.206;2022-07-22T09:08:14;34.90;29.80
32394;DHT22;18853;45.426;9.206;2022-07-22T09:10:40;34.80;30.00
32394;DHT22;18853;45.426;9.206;2022-07-22T09:13:08;34.80;29.90
32394;DHT22;18853;45.426;9.206;2022-07-22T09:15:39;34.90;29.70
32394;DHT22;18853;45.426;9.206;2022-07-22T09:18:07;34.90;29.90
32394;DHT22;18853;45.426;9.206;2022-07-22T09:20:35;35.00;29.40
32394;DHT22;18853;45.426;9.206;2022-07-22T09:23:02;35.10;29.20
32394;DHT22;18853;45.426;9.206;2022-07-22T09:25:35;35.00;29.10
32394;DHT22;18853;45.426;9.206;2022-07-22T09:30:35;35.00;29.40
32394;DHT22;18853;45.426;9.206;2022-07-22T09:33:01;35.00;29.30
32394;DHT22;18853;45.426;9.206;2022-07-22T09:35:28;35.10;29.30
32394;DHT22;18853;45.426;9.206;2022-07-22T09:37:54;35.20;29.20
32394;DHT22;18853;45.426;9.206;2022-07-22T09:45:18;35.30;28.80
32394;DHT22;18853;45.426;9.206;2022-07-22T09:47:44;35.50;28.90
32394;DHT22;18853;45.426;9.206;2022-07-22T09:50:19;35.50;28.70
32394;DHT22;18853;45.426;9.206;2022-07-22T09:52:47;35.60;27.70
32394;DHT22;18853;45.426;9.206;2022-07-22T09:55:15;35.50;27.70
32394;DHT22;18853;45.426;9.206;2022-07-22T09:57:41;35.60;28.30
32394;DHT22;18853;45.426;9.206;2022-07-22T10:00:07;35.60;28.30
32394;DHT22;18853;45.426;9.206;2022-07-22T10:02:50;35.70;28.60
32394;DHT22;18853;45.426;9.206;2022-07-22T10:05:19;35.70;28.00
32394;DHT22;18853;45.426;9.206;2022-07-22T10:07:47;35.80;28.90
32394;DHT22;18853;45.426;9.206;2022-07-22T10:10:18;35.90;28.50
32394;DHT22;18853;45.426;9.206;2022-07-22T10:12:48;35.80;27.70
32394;DHT22;18853;45.426;9.206;2022-07-22T10:15:14;35.90;28.00
32394;DHT22;18853;45.426;9.206;2022-07-22T10:17:42;36.00;28.20
32394;DHT22;18853;45.426;9.206;2022-07-22T10:20:09;36.00;28.10
32394;DHT22;18853;45.426;9.206;2022-07-22T10:25:08;36.10;28.30
32394;DHT22;18853;45.426;9.206;2022-07-22T10:30:17;36.10;27.70
32394;DHT22;18853;45.426;9.206;2022-07-22T10:32:43;36.20;28.00
32394;DHT22;18853;45.426;9.206;2022-07-22T10:35:20;36.20;28.00
32394;DHT22;18853;45.426;9.206;2022-07-22T10:37:49;36.30;28.30
32394;DHT22;18853;45.426;9.206;2022-07-22T10:48:03;36.30;27.50
32394;DHT22;18853;45.426;9.206;2022-07-22T10:53:11;36.30;27.50
32394;DHT22;18853;45.426;9.206;2022-07-22T10:55:38;36.40;28.00
32394;DHT22;18853;45.426;9.206;2022-07-22T11:01:00;36.40;28.10
32394;DHT22;18853;45.426;9.206;2022-07-22T11:03:29;36.40;28.40
32394;DHT22;18853;45.426;9.206;2022-07-22T11:05:54;36.50;28.20
32394;DHT22;18853;45.426;9.206;2022-07-22T11:08:21;36.40;27.90
32394;DHT22;18853;45.426;9.206;2022-07-22T11:10:48;36.40;27.80
32394;DHT22;18853;45.426;9.206;2022-07-22T11:13:30;36.40;28.20
32394;DHT22;18853;45.426;9.206;2022-07-22T11:16:12;36.40;28.70
32394;DHT22;18853;45.426;9.206;2022-07-22T11:18:53;36.50;28.40
32394;DHT22;18853;45.426;9.206;2022-07-22T11:21:21;36.90;28.00
32394;DHT22;18853;45.426;9.206;2022-07-22T11:23:49;37.10;28.30
32394;DHT22;18853;45.426;9.206;2022-07-22T11:26:17;37.20;27.80
32394;DHT22;18853;45.426;9.206;2022-07-22T11:28:44;37.30;27.00
32394;DHT22;18853;45.426;9.206;2022-07-22T11:31:14;37.30;27.30
32394;DHT22;18853;45.426;9.206;2022-07-22T11:33:40;37.40;27.40
32394;DHT22;18853;45.426;9.206;2022-07-22T11:36:08;37.50;27.00
32394;DHT22;18853;45.426;9.206;2022-07-22T11:38:49;37.60;26.50
32394;DHT22;18853;45.426;9.206;2022-07-22T11:41:17;37.80;26.10
32394;DHT22;18853;45.426;9.206;2022-07-22T11:43:49;38.00;26.30
32394;DHT22;18853;45.426;9.206;2022-07-22T11:46:17;38.20;26.10
32394;DHT22;18853;45.426;9.206;2022-07-22T11:48:44;38.20;26.00
32394;DHT22;18853;45.426;9.206;2022-07-22T11:51:12;38.40;26.00
32394;DHT22;18853;45.426;9.206;2022-07-22T11:53:39;38.60;26.00
32394;DHT22;18853;45.426;9.206;2022-07-22T11:56:06;38.70;25.80
32394;DHT22;18853;45.426;9.206;2022-07-22T11:58:46;38.80;25.50
32394;DHT22;18853;45.426;9.206;2022-07-22T12:01:14;39.00;25.10
32394;DHT22;18853;45.426;9.206;2022-07-22T12:03:54;39.10;24.80
32394;DHT22;18853;45.426;9.206;2022-07-22T12:06:22;39.30;25.10
32394;DHT22;18853;45.426;9.206;2022-07-22T12:08:51;39.40;24.60
32394;DHT22;18853;45.426;9.206;2022-07-22T12:11:19;39.50;24.20
32394;DHT22;18853;45.426;9.206;2022-07-22T12:13:48;39.60;24.60
32394;DHT22;18853;45.426;9.206;2022-07-22T12:18:43;39.90;24.70
32394;DHT22;18853;45.426;9.206;2022-07-22T12:21:09;40.00;24.40
32394;DHT22;18853;45.426;9.206;2022-07-22T12:23:34;40.20;24.40
32394;DHT22;18853;45.426;9.206;2022-07-22T12:26:01;40.40;24.40
32394;DHT22;18853;45.426;9.206;2022-07-22T12:28:28;40.40;24.10
32394;DHT22;18853;45.426;9.206;2022-07-22T12:30:55;40.40;24.10
32394;DHT22;18853;45.426;9.206;2022-07-22T12:33:22;40.40;24.20
32394;DHT22;18853;45.426;9.206;2022-07-22T12:38:26;40.70;23.50
32394;DHT22;18853;45.426;9.206;2022-07-22T12:40:52;40.70;23.60
32394;DHT22;18853;45.426;9.206;2022-07-22T12:43:17;40.80;23.60
32394;DHT22;18853;45.426;9.206;2022-07-22T12:45:48;40.90;23.80
32394;DHT22;18853;45.426;9.206;2022-07-22T12:48:14;40.90;23.40
32394;DHT22;18853;45.426;9.206;2022-07-22T12:50:57;41.00;23.20
32394;DHT22;18853;45.426;9.206;2022-07-22T12:53:24;41.20;23.30
32394;DHT22;18853;45.426;9.206;2022-07-22T12:55:57;41.20;23.60
32394;DHT22;18853;45.426;9.206;2022-07-22T12:58:30;41.30;23.30
32394;DHT22;18853;45.426;9.206;2022-07-22T13:00:59;41.30;23.50
32394;DHT22;18853;45.426;9.206;2022-07-22T13:03:26;41.40;23.30
32394;DHT22;18853;45.426;9.206;2022-07-22T13:05:57;41.20;23.60
32394;DHT22;18853;45.426;9.206;2022-07-22T13:08:23;41.00;22.90
32394;DHT22;18853;45.426;9.206;2022-07-22T13:10:50;40.90;23.40
32394;DHT22;18853;45.426;9.206;2022-07-22T13:13:16;40.80;23.30
32394;DHT22;18853;45.426;9.206;2022-07-22T13:15:42;40.70;23.10
32394;DHT22;18853;45.426;9.206;2022-07-22T13:18:07;40.60;23.20
32394;DHT22;18853;45.426;9.206;2022-07-22T13:20:33;40.60;23.50
32394;DHT22;18853;45.426;9.206;2022-07-22T13:22:59;40.50;23.60
32394;DHT22;18853;45.426;9.206;2022-07-22T13:25:25;40.50;23.70
32394;DHT22;18853;45.426;9.206;2022-07-22T13:27:52;40.50;23.60
32394;DHT22;18853;45.426;9.206;2022-07-22T13:30:18;40.50;24.00
32394;DHT22;18853;45.426;9.206;2022-07-22T13:32:44;40.50;23.60
32394;DHT22;18853;45.426;9.206;2022-07-22T13:35:09;40.50;23.40
32394;DHT22;18853;45.426;9.206;2022-07-22T13:37:35;40.50;23.30
32394;DHT22;18853;45.426;9.206;2022-07-22T13:40:01;40.50;23.80
32394;DHT22;18853;45.426;9.206;2022-07-22T13:42:27;40.50;23.90
32394;DHT22;18853;45.426;9.206;2022-07-22T13:44:53;40.50;23.80
32394;DHT22;18853;45.426;9.206;2022-07-22T13:47:20;40.60;23.60
32394;DHT22;18853;45.426;9.206;2022-07-22T13:49:46;40.60;23.30
32394;DHT22;18853;45.426;9.206;2022-07-22T13:52:13;40.60;23.80
32394;DHT22;18853;45.426;9.206;2022-07-22T13:54:39;40.70;23.90
32394;DHT22;18853;45.426;9.206;2022-07-22T13:57:05;40.80;23.60
32394;DHT22;18853;45.426;9.206;2022-07-22T13:59:31;40.80;23.70
32394;DHT22;18853;45.426;9.206;2022-07-22T14:01:57;40.80;23.60
32394;DHT22;18853;45.426;9.206;2022-07-22T14:04:24;40.80;23.50
32394;DHT22;18853;45.426;9.206;2022-07-22T14:06:50;40.90;23.20
32394;DHT22;18853;45.426;9.206;2022-07-22T14:09:15;40.90;23.60
32394;DHT22;18853;45.426;9.206;2022-07-22T14:11:41;40.90;23.40
32394;DHT22;18853;45.426;9.206;2022-07-22T14:14:06;40.90;23.70
32394;DHT22;18853;45.426;9.206;2022-07-22T14:16:33;40.90;23.50
32394;DHT22;18853;45.426;9.206;2022-07-22T14:18:59;40.80;23.40
32394;DHT22;18853;45.426;9.206;2022-07-22T14:21:24;40.90;23.50
32394;DHT22;18853;45.426;9.206;2022-07-22T14:23:50;40.90;23.60
32394;DHT22;18853;45.426;9.206;2022-07-22T14:26:16;40.90;23.60
32394;DHT22;18853;45.426;9.206;2022-07-22T14:28:41;41.00;23.40
32394;DHT22;18853;45.426;9.206;2022-07-22T14:31:07;41.00;23.30
32394;DHT22;18853;45.426;9.206;2022-07-22T14:33:32;41.10;23.00
32394;DHT22;18853;45.426;9.206;2022-07-22T14:35:58;41.20;23.10
32394;DHT22;18853;45.426;9.206;2022-07-22T14:38:24;41.30;23.10
32394;DHT22;18853;45.426;9.206;2022-07-22T14:40:49;41.30;23.20
32394;DHT22;18853;45.426;9.206;2022-07-22T14:43:16;41.40;23.30
32394;DHT22;18853;45.426;9.206;2022-07-22T14:45:41;41.50;23.50
32394;DHT22;18853;45.426;9.206;2022-07-22T14:48:07;41.50;23.30
32394;DHT22;18853;45.426;9.206;2022-07-22T14:50:33;41.60;22.90
32394;DHT22;18853;45.426;9.206;2022-07-22T14:52:59;41.60;22.60
32394;DHT22;18853;45.426;9.206;2022-07-22T14:55:25;41.50;22.60
32394;DHT22;18853;45.426;9.206;2022-07-22T14:57:51;41.50;22.60
32394;DHT22;18853;45.426;9.206;2022-07-22T15:00:16;41.50;22.40
32394;DHT22;18853;45.426;9.206;2022-07-22T15:02:42;41.50;22.30
32394;DHT22;18853;45.426;9.206;2022-07-22T15:05:08;41.60;22.50
32394;DHT22;18853;45.426;9.206;2022-07-22T15:07:34;41.70;22.80
32394;DHT22;18853;45.426;9.206;2022-07-22T15:10:00;41.70;23.00
32394;DHT22;18853;45.426;9.206;2022-07-22T15:12:25;41.70;23.10
32394;DHT22;18853;45.426;9.206;2022-07-22T15:14:51;41.80;23.00
32394;DHT22;18853;45.426;9.206;2022-07-22T15:17:16;41.90;23.60
32394;DHT22;18853;45.426;9.206;2022-07-22T15:19:42;41.90;22.80
32394;DHT22;18853;45.426;9.206;2022-07-22T15:22:09;42.00;22.80
32394;DHT22;18853;45.426;9.206;2022-07-22T15:24:34;42.00;22.70
32394;DHT22;18853;45.426;9.206;2022-07-22T15:27:00;41.90;23.00
32394;DHT22;18853;45.426;9.206;2022-07-22T15:29:26;41.80;23.00
32394;DHT22;18853;45.426;9.206;2022-07-22T15:31:52;41.90;23.20
32394;DHT22;18853;45.426;9.206;2022-07-22T15:34:17;41.90;23.00
32394;DHT22;18853;45.426;9.206;2022-07-22T15:36:43;41.90;23.10
32394;DHT22;18853;45.426;9.206;2022-07-22T15:39:09;42.00;23.20
32394;DHT22;18853;45.426;9.206;2022-07-22T15:41:35;42.00;23.10
32394;DHT22;18853;45.426;9.206;2022-07-22T15:44:02;42.10;23.30
32394;DHT22;18853;45.426;9.206;2022-07-22T15:46:28;42.20;23.20
32394;DHT22;18853;45.426;9.206;2022-07-22T15:48:54;42.20;23.10
32394;DHT22;18853;45.426;9.206;2022-07-22T15:51:19;42.40;23.10
32394;DHT22;18853;45.426;9.206;2022-07-22T15:53:45;42.40;23.10
32394;DHT22;18853;45.426;9.206;2022-07-22T15:56:11;42.30;23.50
32394;DHT22;18853;45.426;9.206;2022-07-22T15:58:36;42.30;23.10